Yeager Airport Charleston US
ICAO: KCRW
IATA: CRW
Category: Large
Scheduled Services: Yes

Elevation: 981 ft
TransAlt. 18000 ft.

Airport Communications:
CHARLESTON APP/DEP:128.5
ATIS:127.6
CLNC DEL:118.55
GND:121.8
ANG COMD POST/OPS:30.23
ELKINS RDO:122.2
CHARLESTON TWR:125.7
UNICOM:122.95

KCRW Zoom In..

If Map Doesn't Load, Click Here

Runways:

(A) RW 05 length 6802 ft width 150 ft
ILS 110.30 / hdg 53

(B) RW 23 length 6802 ft width 150 ft
ILS 110.30 / hdg 233

Location; KCRW
Day. 21 / Time. 12.54 Zulu
* Altimeter: 30.14
* Temperature: 23° c. 73.4°f.
* Wind from: 160° Speed 05 kn.
Dewpoint: 21° c.
Visibility: 10 Statute Miles.
Clouds: Broken 9000 ft.
Clouds: Broken 2000 ft.
Conditions: Fog.

KCRW 211254Z 16005KT 10SM BKN090 BKN200 23/21 A3014 RMK AO2 SLP196 VLY FG T02280206


Wind From 160°
Speed 05 kn.

 
 
jpsmedia.com for Web Design worldairports.se 2018   terms of use